sensor_id;sensor_type;location;lat;lon;timestamp;pressure;altitude;pressure_sealevel;temperature;humidity
61740;BME280;47645;45.288;12.038;2022-08-20T00:00:13;1010.7455371346846;;;21.7626953125;73.8113773131363
61740;BME280;47645;45.288;12.038;2022-08-20T00:10:09;1010.5323286855373;;;21.7373046875;74.31155768387971
61740;BME280;47645;45.288;12.038;2022-08-20T00:20:11;1010.4325212145252;;;21.7830078125;72.36528691050388
61740;BME280;47645;45.288;12.038;2022-08-20T00:30:12;1010.5060541961052;;;21.6607421875;76.36320761936693
61740;BME280;47645;45.288;12.038;2022-08-20T00:40:16;1010.5918319956075;;;21.0185546875;80.5234632054747
61740;BME280;47645;45.288;12.038;2022-08-20T00:50:19;1010.5153855092125;;;21.06953125;80.7951349246495
61740;BME280;47645;45.288;12.038;2022-08-20T01:00:19;1010.545005971518;;;21.390625;74.826130997896
61740;BME280;47645;45.288;12.038;2022-08-20T01:10:19;1010.3730835296587;;;21.278515625;76.40085237712374
61740;BME280;47645;45.288;12.038;2022-08-20T01:20:25;1010.4627016330011;;;21.308984375;73.88494104467378
61740;BME280;47645;45.288;12.038;2022-08-20T01:30:17;1010.5157226204706;;;21.375390625;73.3099600429526
61740;BME280;47645;45.288;12.038;2022-08-20T01:40:31;1010.5460696220518;;;21.395703125;72.7131026926385
61740;BME280;47645;45.288;12.038;2022-08-20T01:50:23;1010.5587122467977;;;21.212109375;74.60115390377204
61740;BME280;47645;45.288;12.038;2022-08-20T02:00:22;1010.4593868290151;;;21.074609375;74.19319451827015
61740;BME280;47645;45.288;12.038;2022-08-20T02:10:23;1010.3589656892369;;;21.1205078125;73.18350839304021
61740;BME280;47645;45.288;12.038;2022-08-20T02:20:27;1010.2847460093145;;;21.0337890625;74.22951920448692
61740;BME280;47645;45.288;12.038;2022-08-20T02:30:27;1010.3416591541583;;;20.8400390625;74.95461194845822
61740;BME280;47645;45.288;12.038;2022-08-20T02:40:27;1010.3591922075143;;;21.1255859375;72.38608277531739
61740;BME280;47645;45.288;12.038;2022-08-20T02:50:26;1010.3619608397048;;;20.9521484375;75.01462360197007
61740;BME280;47645;45.288;12.038;2022-08-20T03:00:30;1010.2448138207932;;;20.9828125;72.60311923819944
61740;BME280;47645;45.288;12.038;2022-08-20T03:10:31;1010.1251830190511;;;20.783984375;73.36747669011822
61740;BME280;47645;45.288;12.038;2022-08-20T03:20:29;1010.0511994748048;;;20.987890625;71.95960092658642
61740;BME280;47645;45.288;12.038;2022-08-20T03:30:31;1010.0652591697096;;;20.977734375;72.20339246987994
61740;BME280;47645;45.288;12.038;2022-08-20T03:40:33;1010.1170820162935;;;20.6974609375;73.07193959642544
61740;BME280;47645;45.288;12.038;2022-08-20T03:50:33;1010.01222561161;;;20.773828125;72.25088314275187
61740;BME280;47645;45.288;12.038;2022-08-20T04:00:37;1010.1517806987035;;;20.7380859375;74.12676002301623
61740;BME280;47645;45.288;12.038;2022-08-20T04:10:35;1010.2946205007661;;;20.5904296875;73.48413279677958
61740;BME280;47645;45.288;12.038;2022-08-20T04:20:37;1010.3175700688629;;;20.3150390625;76.09535581190653
61740;BME280;47645;45.288;12.038;2022-08-20T04:30:36;1010.4577850253929;;;20.3916015625;74.66361432190061
61740;BME280;47645;45.288;12.038;2022-08-20T04:40:53;1010.4559636915662;;;20.3916015625;73.1522819256546
61740;BME280;47645;45.288;12.038;2022-08-20T04:50:40;1010.5326121418268;;;20.5087890625;72.59718814482814
61740;BME280;47645;45.288;12.038;2022-08-20T05:00:40;1010.5377304973222;;;20.5546875;74.72183613218446
61740;BME280;47645;45.288;12.038;2022-08-20T05:10:41;1010.5314942670034;;;20.5189453125;74.38851929357497
61740;BME280;47645;45.288;12.038;2022-08-20T05:20:41;1010.6649988938672;;;20.8298828125;72.32326097546742
61740;BME280;47645;45.288;12.038;2022-08-20T05:30:44;1010.6877301059096;;;21.2326171875;73.22412340347034
61740;BME280;47645;45.288;12.038;2022-08-20T05:40:44;1010.7110723175177;;;21.4669921875;73.8916141363026
61740;BME280;47645;45.288;12.038;2022-08-20T05:50:46;1010.6215627420452;;;21.8443359375;80.42713117579974
61740;BME280;47645;45.288;12.038;2022-08-20T06:00:46;1010.5657761587165;;;22.31328125;76.20013740663461
61740;BME280;47645;45.288;12.038;2022-08-20T06:10:47;1010.4910047325241;;;23.271484375;78.43101837284132
61740;BME280;47645;45.288;12.038;2022-08-20T06:20:48;1010.6264478374475;;;24.0158203125;74.18170205438474
61740;BME280;47645;45.288;12.038;2022-08-20T06:30:48;1010.5807163722081;;;24.4490234375;66.04202206330555
61740;BME280;47645;45.288;12.038;2022-08-20T06:40:50;1010.7418786838948;;;24.1890625;66.50393589048994
61740;BME280;47645;45.288;12.038;2022-08-20T06:50:51;1010.8460159497017;;;24.19921875;63.003334968735686
61740;BME280;47645;45.288;12.038;2022-08-20T07:00:52;1010.9054659621771;;;24.3521484375;73.38672975379149
61740;BME280;47645;45.288;12.038;2022-08-20T07:10:53;1010.8938160958058;;;24.107421875;70.76497431488102
61740;BME280;47645;45.288;12.038;2022-08-20T07:20:57;1010.9911193417786;;;24.1583984375;71.01479924057288
61740;BME280;47645;45.288;12.038;2022-08-20T07:41:00;1010.9591625845054;;;24.8517578125;67.67560864164369
61740;BME280;47645;45.288;12.038;2022-08-20T07:51:00;1010.9926630167527;;;25.34609375;65.78099126004595
61740;BME280;47645;45.288;12.038;2022-08-20T08:01:02;1011.0621632784378;;;25.9986328125;65.17717708203253
61740;BME280;47645;45.288;12.038;2022-08-20T08:11:03;1011.1601771872583;;;25.9375;65.72206258289573
61740;BME280;47645;45.288;12.038;2022-08-20T08:21:06;1011.2581001356997;;;25.9681640625;63.160264197212676
61740;BME280;47645;45.288;12.038;2022-08-20T08:31:03;1011.3309159254885;;;26.4115234375;61.76017489421146
61740;BME280;47645;45.288;12.038;2022-08-20T08:41:09;1011.3531144563273;;;26.533984375;61.87524380941938
61740;BME280;47645;45.288;12.038;2022-08-20T08:51:15;1011.3267189271905;;;26.6255859375;60.93683511021179
61740;BME280;47645;45.288;12.038;2022-08-20T09:01:11;1011.3556383903949;;;26.85;60.37885916327217
61740;BME280;47645;45.288;12.038;2022-08-20T09:11:11;1011.3273111732972;;;26.941796875;59.386664249135485
61740;BME280;47645;45.288;12.038;2022-08-20T09:21:11;1011.3556887443784;;;26.951953125;56.75553639406439
61740;BME280;47645;45.288;12.038;2022-08-20T09:31:12;1011.4183666658283;;;27.5228515625;55.602592375386116
61740;BME280;47645;45.288;12.038;2022-08-20T09:41:13;1011.3829414446031;;;28.272265625;56.41764527885743
61740;BME280;47645;45.288;12.038;2022-08-20T09:51:14;1011.3569114987212;;;29.388671875;53.53816597505624
61740;BME280;47645;45.288;12.038;2022-08-20T10:01:16;1011.3230125585843;;;29.9798828125;50.7599532117187
61740;BME280;47645;45.288;12.038;2022-08-20T10:11:17;1011.2847594472992;;;30.2806640625;48.74624065705809
61740;BME280;47645;45.288;12.038;2022-08-20T10:21:19;1011.2967479339084;;;30.4693359375;44.52933134198662
61740;BME280;47645;45.288;12.038;2022-08-20T10:31:19;1011.249598191233;;;30.2755859375;44.52233213912626
61740;BME280;47645;45.288;12.038;2022-08-20T10:41:22;1011.2237403402943;;;30.6375;45.76805474107165
61740;BME280;47645;45.288;12.038;2022-08-20T10:51:22;1011.1681574658185;;;31.6826171875;41.653856933852545
61740;BME280;47645;45.288;12.038;2022-08-20T11:01:25;1011.1261185590275;;;32.641015625;41.01007349852591
61740;BME280;47645;45.288;12.038;2022-08-20T11:11:25;1011.0551792225101;;;33.15078125;37.87731571336822
61740;BME280;47645;45.288;12.038;2022-08-20T11:21:27;1010.8724809849839;;;34.068359375;36.44653046590799
61740;BME280;47645;45.288;12.038;2022-08-20T11:31:29;1010.845429268811;;;34.8025390625;35.26749716858678
61740;BME280;47645;45.288;12.038;2022-08-20T11:41:32;1010.7422152667282;;;34.863671875;31.44639883145805
61740;BME280;47645;45.288;12.038;2022-08-20T11:51:33;1010.6390598149253;;;34.445703125;31.99112293088498
61740;BME280;47645;45.288;12.038;2022-08-20T12:01:34;1010.5947462797644;;;35.230859375;32.43663947648833
61740;BME280;47645;45.288;12.038;2022-08-20T12:11:36;1010.563060515181;;;35.842578125;36.958139307932235
61740;BME280;47645;45.288;12.038;2022-08-20T12:21:38;1010.5533041718454;;;37.32109375;31.014765051703936
61740;BME280;47645;45.288;12.038;2022-08-20T12:31:40;1010.4494526320009;;;36.8111328125;31.7143367133902
61740;BME280;47645;45.288;12.038;2022-08-20T12:41:42;1010.4434138246012;;;36.260546875;36.047781636499515
61740;BME280;47645;45.288;12.038;2022-08-20T12:51:44;1010.3443482489229;;;36.46953125;36.68801261273173
61740;BME280;47645;45.288;12.038;2022-08-20T13:01:45;1010.3276947706744;;;36.3421875;27.92504394239265
61740;BME280;47645;45.288;12.038;2022-08-20T13:11:47;1010.3496230941103;;;36.2197265625;26.449123415292924
61740;BME280;47645;45.288;12.038;2022-08-20T13:21:50;1010.3885924783831;;;37.1578125;30.230518427803585
61740;BME280;47645;45.288;12.038;2022-08-20T13:31:51;1010.3688225171816;;;37.65234375;29.558551912850795
61740;BME280;47645;45.288;12.038;2022-08-20T13:41:53;1010.3411941758626;;;37.65234375;24.38420359730423
61740;BME280;47645;45.288;12.038;2022-08-20T13:51:55;1010.3397985323827;;;37.759375;24.847165970440347
61740;BME280;47645;45.288;12.038;2022-08-20T14:01:57;1010.2567473674072;;;38.218359375;32.00321553267026
61740;BME280;47645;45.288;12.038;2022-08-20T14:11:59;1010.2036013081789;;;37.8919921875;27.472505026517577
61740;BME280;47645;45.288;12.038;2022-08-20T14:22:01;1010.1393329758226;;;37.657421875;26.121543200361867
61740;BME280;47645;45.288;12.038;2022-08-20T14:32:04;1010.024165119747;;;38.0654296875;26.364408348687682
61740;BME280;47645;45.288;12.038;2022-08-20T14:42:05;1009.9924444221557;;;37.621875;28.242181501250776
61740;BME280;47645;45.288;12.038;2022-08-20T14:52:07;1009.954298625487;;;38.432421875;31.734306685999915
61740;BME280;47645;45.288;12.038;2022-08-20T15:02:12;1009.9290771980101;;;39.51328125;29.418452370029954
61740;BME280;47645;45.288;12.038;2022-08-20T15:12:11;1009.8919784444303;;;39.1818359375;31.529460626011506
61740;BME280;47645;45.288;12.038;2022-08-20T15:22:13;1009.8413867673294;;;38.0857421875;27.28008745979209
61740;BME280;47645;45.288;12.038;2022-08-20T15:32:16;1009.8209943499326;;;38.111328125;33.65136183939667
61740;BME280;47645;45.288;12.038;2022-08-20T15:42:18;1009.7569479236095;;;38.3611328125;29.171512753537616
61740;BME280;47645;45.288;12.038;2022-08-20T15:52:19;1009.7629046015526;;;37.94296875;30.42363778175564
61740;BME280;47645;45.288;12.038;2022-08-20T16:02:47;1009.9238944053858;;;36.6736328125;31.956518196342177
61740;BME280;47645;45.288;12.038;2022-08-20T16:12:30;1010.0000110902733;;;36.1025390625;33.08425565764711
61740;BME280;47645;45.288;12.038;2022-08-20T16:22:26;1010.136459337645;;;34.6853515625;32.43115421081964
61740;BME280;47645;45.288;12.038;2022-08-20T16:32:33;1010.1636857178493;;;33.4822265625;34.45340562402358
61740;BME280;47645;45.288;12.038;2022-08-20T16:42:34;1010.1329212825916;;;32.641015625;37.1085808085207
61740;BME280;47645;45.288;12.038;2022-08-20T16:52:29;1010.1093010831635;;;31.92734375;38.78468900906226
61740;BME280;47645;45.288;12.038;2022-08-20T17:02:31;1010.1289417583322;;;31.4787109375;39.482584207368184
61740;BME280;47645;45.288;12.038;2022-08-20T17:12:33;1010.0920730499784;;;31.4888671875;40.17703603082492
61740;BME280;47645;45.288;12.038;2022-08-20T17:22:40;1010.1056605230599;;;31.0810546875;40.366743015679944
61740;BME280;47645;45.288;12.038;2022-08-20T17:32:48;1010.0570665377419;;;30.6630859375;42.5057229845418
61740;BME280;47645;45.288;12.038;2022-08-20T17:42:45;1010.1871245183363;;;30.1939453125;44.539311322780826
61740;BME280;47645;45.288;12.038;2022-08-20T17:52:45;1010.3009109900232;;;29.821875;46.094552234282965
61740;BME280;47645;45.288;12.038;2022-08-20T18:02:41;1010.3607481511009;;;29.5669921875;47.88153505299596
61740;BME280;47645;45.288;12.038;2022-08-20T18:12:47;1010.422889023495;;;29.128515625;48.967824452805715
61740;BME280;47645;45.288;12.038;2022-08-20T18:22:48;1010.4495982026197;;;28.7716796875;50.117178795200786
61740;BME280;47645;45.288;12.038;2022-08-20T18:32:48;1010.5038369064895;;;28.302734375;50.719817132210565
61740;BME280;47645;45.288;12.038;2022-08-20T18:42:47;1010.6551118103872;;;28.0224609375;52.09351782180546
61740;BME280;47645;45.288;12.038;2022-08-20T18:53:02;1010.6850430810794;;;27.6859375;53.266101446651014
61740;BME280;47645;45.288;12.038;2022-08-20T19:02:54;1010.6825619669887;;;27.4462890625;54.160243641290464
61740;BME280;47645;45.288;12.038;2022-08-20T19:22:54;1010.8021045952107;;;27.176171875;55.167991318583745
61740;BME280;47645;45.288;12.038;2022-08-20T19:32:54;1010.8243473954889;;;27.701171875;54.0161532951373
61740;BME280;47645;45.288;12.038;2022-08-20T19:42:58;1010.928847367474;;;27.0640625;55.59932451104202
61740;BME280;47645;45.288;12.038;2022-08-20T19:53:04;1010.9940747408207;;;26.7123046875;56.52749712413837
61740;BME280;47645;45.288;12.038;2022-08-20T20:03:07;1011.0139963679934;;;26.5033203125;56.914197618753214
61740;BME280;47645;45.288;12.038;2022-08-20T20:13:07;1011.0205537711719;;;26.4625;57.699775363340805
61740;BME280;47645;45.288;12.038;2022-08-20T20:23:14;1011.1498918620199;;;26.865234375;55.74402078863948
61740;BME280;47645;45.288;12.038;2022-08-20T20:33:11;1011.072695477507;;;25.92734375;58.623001302518695
61740;BME280;47645;45.288;12.038;2022-08-20T20:43:08;1011.0739921240106;;;25.6826171875;59.38676020778829
61740;BME280;47645;45.288;12.038;2022-08-20T20:53:14;1011.053876776203;;;25.42265625;59.705977452035945
61740;BME280;47645;45.288;12.038;2022-08-20T21:03:07;1011.0638707913207;;;25.310546875;60.75692703730635
61740;BME280;47645;45.288;12.038;2022-08-20T21:18:10;1011.1459909154921;;;24.89765625;61.66077960954113
61740;BME280;47645;45.288;12.038;2022-08-20T21:23:09;1011.1104719467077;;;24.8875;62.34654255068241
61740;BME280;47645;45.288;12.038;2022-08-20T21:33:11;1011.1647386431858;;;24.7396484375;65.07988731630621
61740;BME280;47645;45.288;12.038;2022-08-20T21:43:12;1011.1876196800854;;;24.6580078125;66.51921874821917
61740;BME280;47645;45.288;12.038;2022-08-20T21:53:14;1011.2439642150728;;;24.3521484375;65.2184004742388
61740;BME280;47645;45.288;12.038;2022-08-20T22:03:16;1011.204695696242;;;25.030078125;60.900822078642506
61740;BME280;47645;45.288;12.038;2022-08-20T22:13:16;1011.2490207925116;;;24.37265625;68.44509631857352
61740;BME280;47645;45.288;12.038;2022-08-20T22:23:18;1011.4144463214093;;;24.076953125;70.56749728817232
61740;BME280;47645;45.288;12.038;2022-08-20T22:33:21;1011.5337411723598;;;24.0158203125;70.43213438874295
61740;BME280;47645;45.288;12.038;2022-08-20T22:43:21;1011.5343193141213;;;23.669140625;72.83268264668317
61740;BME280;47645;45.288;12.038;2022-08-20T22:53:23;1011.5486205080041;;;23.65390625;72.5734236359508
61740;BME280;47645;45.288;12.038;2022-08-20T23:03:22;1011.5248920534392;;;23.699609375;72.21611073627854
61740;BME280;47645;45.288;12.038;2022-08-20T23:13:24;1011.5973059235654;;;23.6130859375;73.50940286960659
61740;BME280;47645;45.288;12.038;2022-08-20T23:23:26;1011.5624157732385;;;23.6181640625;72.24435520155355
61740;BME280;47645;45.288;12.038;2022-08-20T23:33:26;1011.4559186052269;;;23.562109375;69.96591827148669
61740;BME280;47645;45.288;12.038;2022-08-20T23:43:27;1011.4370127224919;;;23.669140625;71.73334839296312
61740;BME280;47645;45.288;12.038;2022-08-20T23:53:29;1011.344911184547;;;23.5060546875;70.98796286642525
